createdAt,value
2018-09-22T00:00:42.301Z,1.70
2018-09-22T00:01:42.315Z,1.80
2018-09-22T00:02:42.341Z,1.60
2018-09-22T00:03:42.355Z,1.50
2018-09-22T00:04:42.367Z,1.60
2018-09-22T00:05:42.394Z,1.80
2018-09-22T00:06:42.408Z,1.90
2018-09-22T00:07:42.421Z,2.00
2018-09-22T00:08:42.446Z,1.80
2018-09-22T00:09:42.459Z,1.80
2018-09-22T00:10:42.473Z,2.00
2018-09-22T00:11:42.503Z,1.70
2018-09-22T00:12:42.512Z,1.90
2018-09-22T00:13:42.525Z,2.10
2018-09-22T00:14:42.552Z,1.70
2018-09-22T00:15:42.566Z,2.00
2018-09-22T00:16:42.578Z,1.70
2018-09-22T00:17:42.605Z,1.70
2018-09-22T00:18:42.617Z,1.80
2018-09-22T00:19:42.631Z,1.80
2018-09-22T00:20:42.657Z,2.00
2018-09-22T00:21:42.704Z,2.00
2018-09-22T00:22:42.684Z,1.90
2018-09-22T00:23:42.710Z,2.20
2018-09-22T00:24:42.722Z,2.30
2018-09-22T00:25:42.737Z,2.20
2018-09-22T00:26:42.762Z,2.20
2018-09-22T00:27:42.775Z,2.10
2018-09-22T00:28:42.792Z,2.40
2018-09-22T00:29:42.802Z,2.20
2018-09-22T00:30:42.829Z,2.20
2018-09-22T00:31:42.846Z,2.50
2018-09-22T00:32:42.856Z,2.20
2018-09-22T00:33:42.880Z,2.20
2018-09-22T00:34:42.894Z,2.00
2018-09-22T00:35:42.907Z,2.30
2018-09-22T00:36:42.934Z,2.10
2018-09-22T00:37:42.947Z,2.20
2018-09-22T00:38:42.960Z,2.30
2018-09-22T00:39:42.985Z,2.30
2018-09-22T00:40:42.999Z,2.40
2018-09-22T00:41:43.012Z,2.20
2018-09-22T00:42:43.039Z,2.50
2018-09-22T00:43:43.057Z,2.10
2018-09-22T00:44:43.065Z,2.40
2018-09-22T00:45:43.091Z,2.20
2018-09-22T00:46:43.108Z,2.40
2018-09-22T00:47:43.118Z,2.40
2018-09-22T00:48:43.144Z,2.10
2018-09-22T00:49:43.157Z,2.20
2018-09-22T00:50:43.183Z,2.10
2018-09-22T00:51:43.197Z,2.60
2018-09-22T00:52:43.212Z,2.20
2018-09-22T00:53:43.224Z,2.40
2018-09-22T00:54:43.249Z,2.30
2018-09-22T00:55:43.265Z,2.20
2018-09-22T00:56:43.276Z,2.30
2018-09-22T00:57:43.307Z,2.10
2018-09-22T00:58:43.316Z,2.20
2018-09-22T00:59:43.329Z,2.60
2018-09-22T01:00:43.354Z,2.50
2018-09-22T01:01:43.368Z,2.40
2018-09-22T01:02:43.388Z,2.00
2018-09-22T01:03:43.407Z,2.40
2018-09-22T01:04:43.420Z,2.90
2018-09-22T01:05:43.436Z,2.60
2018-09-22T01:06:43.472Z,2.50
2018-09-22T01:07:43.473Z,2.40
2018-09-22T01:08:43.486Z,2.40
2018-09-22T01:09:43.513Z,2.30
2018-09-22T01:10:43.525Z,2.90
2018-09-22T01:11:43.542Z,2.20
2018-09-22T01:12:43.566Z,2.20
2018-09-22T01:13:43.579Z,2.50
2018-09-22T01:14:43.592Z,2.40
2018-09-22T01:15:43.656Z,2.10
2018-09-22T01:16:43.631Z,2.30
2018-09-22T01:17:43.646Z,2.40
2018-09-22T01:18:43.670Z,2.10
2018-09-22T01:19:43.684Z,2.20
2018-09-22T01:20:43.697Z,2.20
2018-09-22T01:21:43.722Z,2.20
2018-09-22T01:22:43.737Z,2.30
2018-09-22T01:23:43.749Z,2.20
2018-09-22T01:24:43.780Z,2.00
2018-09-22T01:25:43.788Z,2.20
2018-09-22T01:26:43.814Z,2.20
2018-09-22T01:27:43.828Z,2.30
2018-09-22T01:28:43.845Z,2.10
2018-09-22T01:29:43.856Z,2.50
2018-09-22T01:30:43.881Z,2.30
2018-09-22T01:31:43.895Z,2.20
2018-09-22T01:32:43.908Z,2.20
2018-09-22T01:33:43.933Z,2.40
2018-09-22T01:34:43.947Z,2.30
2018-09-22T01:35:43.959Z,2.90
2018-09-22T01:36:43.975Z,2.50
2018-09-22T01:37:44.000Z,2.60
2018-09-22T01:38:44.012Z,2.10
2018-09-22T01:39:44.038Z,2.30
2018-09-22T01:40:44.053Z,2.30
2018-09-22T01:41:44.065Z,2.40
2018-09-22T01:42:44.091Z,2.30
2018-09-22T01:43:44.105Z,2.20
2018-09-22T01:44:44.118Z,2.50
2018-09-22T01:45:44.132Z,2.60
2018-09-22T01:46:44.158Z,2.70
2018-09-22T01:47:44.171Z,3.00
2018-09-22T01:48:44.199Z,2.60
2018-09-22T01:49:44.211Z,2.70
2018-09-22T01:50:44.236Z,2.50
2018-09-22T01:51:44.250Z,2.40
2018-09-22T01:52:44.263Z,2.80
2018-09-22T01:53:44.277Z,3.40
2018-09-22T01:54:44.302Z,2.60
2018-09-22T01:55:44.316Z,2.80
2018-09-22T01:56:44.334Z,2.70
2018-09-22T01:57:44.344Z,2.30
2018-09-22T01:58:44.368Z,2.60
2018-09-22T01:59:44.382Z,2.90
2018-09-22T02:00:44.396Z,2.80
2018-09-22T02:01:44.421Z,2.90
2018-09-22T02:02:44.435Z,3.20
2018-09-22T02:03:44.450Z,2.70
2018-09-22T02:04:44.473Z,2.60
2018-09-22T02:05:44.488Z,2.90
2018-09-22T02:06:44.500Z,2.90
2018-09-22T02:07:44.526Z,2.70
2018-09-22T02:08:44.550Z,2.90
2018-09-22T02:09:44.553Z,3.10
2018-09-22T02:10:44.614Z,2.50
2018-09-22T02:11:44.591Z,2.80
2018-09-22T02:12:44.609Z,2.70
2018-09-22T02:13:44.632Z,2.70
2018-09-22T02:14:44.644Z,2.90
2018-09-22T02:15:44.658Z,3.20
2018-09-22T02:16:44.685Z,2.90
2018-09-22T02:17:44.697Z,2.70
2018-09-22T02:18:44.712Z,3.30
2018-09-22T02:19:44.737Z,2.60
2018-09-22T02:20:44.750Z,2.90
2018-09-22T02:21:44.778Z,2.80
2018-09-22T02:22:44.790Z,2.90
2018-09-22T02:23:44.806Z,2.50
2018-09-22T02:24:44.817Z,2.60
2018-09-22T02:25:44.831Z,2.70
2018-09-22T02:26:44.857Z,2.50
2018-09-22T02:27:44.869Z,2.70
2018-09-22T02:28:44.883Z,2.70
2018-09-22T02:29:44.909Z,2.50
2018-09-22T02:30:44.922Z,2.60
2018-09-22T02:31:44.936Z,2.50
2018-09-22T02:32:44.960Z,2.80
2018-09-22T02:33:44.975Z,2.70
2018-09-22T02:34:44.991Z,2.40
2018-09-22T02:35:45.013Z,2.40
2018-09-22T02:36:45.027Z,2.50
2018-09-22T02:37:45.040Z,2.40
2018-09-22T02:38:45.067Z,2.20
2018-09-22T02:39:45.083Z,2.50
2018-09-22T02:40:45.094Z,2.60
2018-09-22T02:41:45.108Z,3.20
2018-09-22T02:42:45.137Z,2.70
2018-09-22T02:43:45.146Z,2.70
2018-09-22T02:44:45.159Z,2.20
2018-09-22T02:45:45.185Z,2.20
2018-09-22T02:46:45.199Z,2.30
2018-09-22T02:47:45.211Z,2.70
2018-09-22T02:48:45.238Z,2.50
2018-09-22T02:49:45.252Z,2.30
2018-09-22T02:50:45.264Z,2.50
2018-09-22T02:51:45.290Z,2.50
2018-09-22T02:52:45.303Z,2.30
2018-09-22T02:53:45.318Z,2.40
2018-09-22T02:54:45.332Z,2.40
2018-09-22T02:55:45.356Z,2.40
2018-09-22T02:56:45.373Z,2.30
2018-09-22T02:57:45.429Z,2.30
2018-09-22T02:58:45.409Z,2.20
2018-09-22T02:59:45.422Z,2.70
2018-09-22T03:00:45.435Z,2.80
2018-09-22T03:01:45.462Z,2.50
2018-09-22T03:02:45.476Z,2.40
2018-09-22T03:03:45.487Z,2.40
2018-09-22T03:04:45.515Z,2.10
2018-09-22T03:05:45.528Z,2.30
2018-09-22T03:06:45.598Z,2.80
2018-09-22T03:07:45.568Z,2.50
2018-09-22T03:08:45.600Z,2.50
2018-09-22T03:09:45.593Z,2.50
2018-09-22T03:10:45.626Z,2.30
2018-09-22T03:11:45.633Z,2.40
2018-09-22T03:12:45.646Z,2.50
2018-09-22T03:13:45.721Z,2.60
2018-09-22T03:14:45.689Z,2.70
2018-09-22T03:15:45.698Z,2.00
2018-09-22T03:16:45.713Z,2.20
2018-09-22T03:17:45.738Z,2.20
2018-09-22T03:18:45.750Z,2.60
2018-09-22T03:19:45.767Z,2.50
2018-09-22T03:20:45.791Z,2.50
2018-09-22T03:21:45.804Z,2.50
2018-09-22T03:22:45.818Z,2.00
2018-09-22T03:23:45.845Z,2.50
2018-09-22T03:24:45.857Z,2.30
2018-09-22T03:25:45.871Z,2.40
2018-09-22T03:26:45.885Z,2.30
2018-09-22T03:27:45.922Z,2.50
2018-09-22T03:28:45.924Z,2.00
2018-09-22T03:29:45.936Z,2.30
2018-09-22T03:30:45.962Z,2.40
2018-09-22T03:31:45.977Z,2.70
2018-09-22T03:32:45.989Z,2.30
2018-09-22T03:33:46.015Z,2.30
2018-09-22T03:34:46.029Z,2.40
2018-09-22T03:35:46.046Z,2.30
2018-09-22T03:36:46.067Z,2.30
2018-09-22T03:37:46.082Z,2.40
2018-09-22T03:38:46.094Z,2.60
2018-09-22T03:39:46.120Z,2.50
2018-09-22T03:40:46.137Z,2.30
2018-09-22T03:41:46.146Z,2.40
2018-09-22T03:42:46.172Z,2.50
2018-09-22T03:43:46.187Z,2.80
2018-09-22T03:44:46.199Z,2.30
2018-09-22T03:45:46.213Z,2.40
2018-09-22T03:46:46.239Z,2.00
2018-09-22T03:47:46.253Z,2.20
2018-09-22T03:48:46.265Z,2.20
2018-09-22T03:49:46.292Z,2.20
2018-09-22T03:50:46.304Z,2.30
2018-09-22T03:51:46.318Z,2.00
2018-09-22T03:52:46.350Z,2.20
2018-09-22T03:53:46.357Z,2.40
2018-09-22T03:54:46.371Z,2.40
2018-09-22T03:55:46.396Z,2.10
2018-09-22T03:56:46.417Z,2.00
2018-09-22T03:57:46.424Z,2.10
2018-09-22T03:58:46.436Z,2.30
2018-09-22T03:59:46.462Z,2.50
2018-09-22T04:00:46.477Z,2.00
2018-09-22T04:01:46.491Z,2.30
2018-09-22T04:02:46.518Z,2.20
2018-09-22T04:03:46.530Z,1.80
2018-09-22T04:04:46.546Z,2.10
2018-09-22T04:05:46.557Z,2.20
2018-09-22T04:06:46.581Z,2.10
2018-09-22T04:07:46.594Z,2.10
2018-09-22T04:08:46.609Z,2.20
2018-09-22T04:09:46.634Z,2.20
2018-09-22T04:10:46.649Z,2.10
2018-09-22T04:11:46.661Z,1.90
2018-09-22T04:12:46.687Z,2.10
2018-09-22T04:13:46.700Z,2.30
2018-09-22T04:14:46.714Z,2.20
2018-09-22T04:15:46.727Z,2.20
2018-09-22T04:16:46.752Z,1.90
2018-09-22T04:17:46.765Z,2.20
2018-09-22T04:18:46.779Z,2.00
2018-09-22T04:19:46.806Z,1.80
2018-09-22T04:20:46.819Z,2.20
2018-09-22T04:21:46.832Z,1.90
2018-09-22T04:22:46.848Z,2.10
2018-09-22T04:23:46.871Z,2.10
2018-09-22T04:24:46.884Z,2.00
2018-09-22T04:25:46.901Z,2.10
2018-09-22T04:26:46.913Z,2.20
2018-09-22T04:27:46.940Z,2.00
2018-09-22T04:28:46.950Z,2.30
2018-09-22T04:29:46.966Z,2.10
2018-09-22T04:30:46.995Z,2.10
2018-09-22T04:31:47.004Z,1.70
2018-09-22T04:32:47.018Z,2.00
2018-09-22T04:33:47.031Z,2.10
2018-09-22T04:34:47.057Z,2.00
2018-09-22T04:35:47.074Z,1.90
2018-09-22T04:36:47.083Z,1.90
2018-09-22T04:37:47.097Z,1.70
2018-09-22T04:38:47.122Z,2.10
2018-09-22T04:39:47.136Z,2.20
2018-09-22T04:40:47.162Z,2.20
2018-09-22T04:41:47.174Z,2.00
2018-09-22T04:42:47.189Z,2.00
2018-09-22T04:43:47.201Z,1.90
2018-09-22T04:44:47.216Z,1.80
2018-09-22T04:45:47.242Z,2.20
2018-09-22T04:46:47.255Z,2.00
2018-09-22T04:47:47.268Z,1.90
2018-09-22T04:48:47.295Z,1.60
2018-09-22T04:49:47.307Z,1.70
2018-09-22T04:50:47.322Z,1.60
2018-09-22T04:51:47.335Z,1.70
2018-09-22T04:52:47.360Z,1.90
2018-09-22T04:53:47.374Z,1.70
2018-09-22T04:54:47.387Z,1.90
2018-09-22T04:55:47.412Z,1.90
2018-09-22T04:56:47.426Z,1.90
2018-09-22T04:57:47.441Z,2.00
2018-09-22T04:58:47.453Z,1.70
2018-09-22T04:59:47.480Z,2.00
2018-09-22T05:00:47.491Z,2.00
2018-09-22T05:01:47.506Z,1.90
2018-09-22T05:02:47.532Z,1.60
2018-09-22T05:03:47.543Z,1.80
2018-09-22T05:04:47.559Z,1.70
2018-09-22T05:05:47.571Z,2.20
2018-09-22T05:06:47.596Z,1.90
2018-09-22T05:07:47.611Z,1.80
2018-09-22T05:08:47.625Z,1.80
2018-09-22T05:09:47.649Z,1.90
2018-09-22T05:10:47.668Z,1.60
2018-09-22T05:11:47.927Z,1.90
2018-09-22T05:12:47.691Z,1.90
2018-09-22T05:13:47.720Z,1.60
2018-09-22T05:14:47.729Z,1.80
2018-09-22T05:15:47.743Z,1.80
2018-09-22T05:16:47.769Z,1.60
2018-09-22T05:17:47.782Z,1.60
2018-09-22T05:18:47.797Z,2.00
2018-09-22T05:19:47.822Z,1.80
2018-09-22T05:20:47.834Z,2.00
2018-09-22T05:21:47.848Z,1.80
2018-09-22T05:22:47.863Z,1.70
2018-09-22T05:23:47.887Z,1.70
2018-09-22T05:24:47.988Z,2.20
2018-09-22T05:25:47.926Z,1.80
2018-09-22T05:26:47.940Z,2.10
2018-09-22T05:27:47.954Z,1.70
2018-09-22T05:28:47.967Z,2.20
2018-09-22T05:29:47.993Z,1.90
2018-09-22T05:30:48.007Z,1.70
2018-09-22T05:31:48.019Z,2.10
2018-09-22T05:32:48.034Z,2.00
2018-09-22T05:33:48.059Z,1.90
2018-09-22T05:34:48.074Z,2.10
2018-09-22T05:35:48.087Z,2.00
2018-09-22T05:36:48.118Z,2.10
2018-09-22T05:37:48.126Z,2.20
2018-09-22T05:38:48.145Z,2.30
2018-09-22T05:39:48.164Z,2.00
2018-09-22T05:40:48.177Z,2.30
2018-09-22T05:41:48.255Z,2.20
2018-09-22T05:42:48.205Z,2.40
2018-09-22T05:43:48.229Z,2.20
2018-09-22T05:44:48.245Z,2.10
2018-09-22T05:45:48.257Z,2.40
2018-09-22T05:46:48.284Z,2.30
2018-09-22T05:47:48.297Z,2.30
2018-09-22T05:48:48.313Z,2.70
2018-09-22T05:49:48.335Z,1.90
2018-09-22T05:50:48.350Z,2.20
2018-09-22T05:51:48.363Z,2.40
2018-09-22T05:52:48.389Z,2.60
2018-09-22T05:53:48.402Z,2.30
2018-09-22T05:54:48.415Z,2.50
2018-09-22T05:55:48.429Z,2.00
2018-09-22T05:56:48.457Z,2.40
2018-09-22T05:57:48.467Z,2.30
2018-09-22T05:58:48.482Z,2.30
2018-09-22T05:59:48.500Z,2.00
2018-09-22T06:00:48.521Z,2.40
2018-09-22T06:01:48.534Z,2.20
2018-09-22T06:02:48.546Z,2.10
2018-09-22T06:03:48.692Z,2.40
2018-09-22T06:04:48.588Z,2.30
2018-09-22T06:05:48.599Z,2.80
2018-09-22T06:06:48.631Z,2.30
2018-09-22T06:07:48.640Z,2.00
2018-09-22T06:08:48.653Z,2.10
2018-09-22T06:09:48.673Z,2.30
2018-09-22T06:10:48.692Z,1.80
2018-09-22T06:11:48.705Z,2.10
2018-09-22T06:12:48.721Z,2.50
2018-09-22T06:13:48.746Z,2.10
2018-09-22T06:14:48.758Z,2.10
2018-09-22T06:15:48.784Z,1.80
2018-09-22T06:16:48.799Z,1.90
2018-09-22T06:17:48.813Z,2.00
2018-09-22T06:18:48.826Z,2.10
2018-09-22T06:19:48.852Z,2.10
2018-09-22T06:20:48.864Z,2.10
2018-09-22T06:21:48.877Z,2.30
2018-09-22T06:22:48.908Z,1.80
2018-09-22T06:23:48.916Z,1.90
2018-09-22T06:24:48.931Z,1.80
2018-09-22T06:25:48.944Z,1.80
2018-09-22T06:26:48.971Z,2.20
2018-09-22T06:27:48.984Z,1.90
2018-09-22T06:28:49.012Z,2.30
2018-09-22T06:29:49.027Z,2.10
2018-09-22T06:30:49.036Z,1.70
2018-09-22T06:31:49.062Z,1.80
2018-09-22T06:32:49.075Z,1.60
2018-09-22T06:33:49.089Z,2.40
2018-09-22T06:34:49.116Z,1.70
2018-09-22T06:35:49.127Z,1.90
2018-09-22T06:36:49.141Z,2.00
2018-09-22T06:37:49.168Z,2.00
2018-09-22T06:38:49.183Z,1.80
2018-09-22T06:39:49.199Z,2.00
2018-09-22T06:40:49.221Z,1.70
2018-09-22T06:41:49.233Z,2.10
2018-09-22T06:42:49.248Z,1.60
2018-09-22T06:43:49.273Z,1.80
2018-09-22T06:44:49.304Z,1.50
2018-09-22T06:45:49.303Z,1.60
2018-09-22T06:46:49.326Z,2.20
2018-09-22T06:47:49.345Z,1.90
2018-09-22T06:48:49.365Z,2.00
2018-09-22T06:49:49.382Z,1.50
2018-09-22T06:50:49.392Z,1.70
2018-09-22T06:51:49.418Z,1.30
2018-09-22T06:52:49.433Z,1.40
2018-09-22T06:53:49.446Z,1.60
2018-09-22T06:54:49.530Z,1.90
2018-09-22T06:55:49.486Z,1.70
2018-09-22T06:56:49.511Z,1.60
2018-09-22T06:57:49.527Z,1.80
2018-09-22T06:58:49.587Z,1.60
2018-09-22T06:59:49.567Z,1.40
2018-09-22T07:00:49.590Z,1.80
2018-09-22T07:01:49.603Z,1.70
2018-09-22T07:02:49.616Z,1.70
2018-09-22T07:03:49.643Z,2.00
2018-09-22T07:04:49.655Z,1.70
2018-09-22T07:05:49.674Z,1.70
2018-09-22T07:06:49.695Z,1.50
2018-09-22T07:07:49.708Z,1.70
2018-09-22T07:08:49.735Z,1.80
2018-09-22T07:09:49.749Z,1.60
2018-09-22T07:10:49.774Z,1.80
2018-09-22T07:11:49.787Z,1.90
2018-09-22T07:12:49.802Z,1.70
2018-09-22T07:13:49.884Z,1.70
2018-09-22T07:14:49.840Z,2.00
2018-09-22T07:15:49.917Z,1.60
2018-09-22T07:16:49.885Z,1.80
2018-09-22T07:17:49.906Z,1.90
2018-09-22T07:18:49.922Z,1.80
2018-09-22T07:19:49.933Z,1.80
2018-09-22T07:20:49.961Z,1.90
2018-09-22T07:21:49.972Z,1.70
2018-09-22T07:22:49.998Z,2.00
2018-09-22T07:23:50.012Z,2.00
2018-09-22T07:24:50.038Z,1.90
2018-09-22T07:25:50.052Z,2.10
2018-09-22T07:26:50.078Z,2.00
2018-09-22T07:27:50.091Z,1.90
2018-09-22T07:28:50.104Z,1.60
2018-09-22T07:29:50.129Z,1.60
2018-09-22T07:30:50.220Z,2.50
2018-09-22T07:31:50.170Z,2.00
2018-09-22T07:32:50.183Z,1.90
2018-09-22T07:33:50.222Z,2.00
2018-09-22T07:34:50.223Z,1.70
2018-09-22T07:35:50.250Z,1.90
2018-09-22T07:36:50.264Z,1.60
2018-09-22T07:37:50.279Z,2.10
2018-09-22T07:38:50.302Z,1.80
2018-09-22T07:39:50.317Z,1.80
2018-09-22T07:40:50.352Z,2.00
2018-09-22T07:41:50.355Z,1.80
2018-09-22T07:42:50.380Z,1.90
2018-09-22T07:43:50.394Z,1.80
2018-09-22T07:44:50.419Z,2.10
2018-09-22T07:45:50.522Z,2.10
2018-09-22T07:46:50.459Z,2.00
2018-09-22T07:47:50.472Z,2.10
2018-09-22T07:48:50.511Z,1.80
2018-09-22T07:49:50.512Z,1.90
2018-09-22T07:50:50.538Z,1.70
2018-09-22T07:51:50.553Z,1.90
2018-09-22T07:52:50.577Z,2.00
2018-09-22T07:53:50.591Z,1.90
2018-09-22T07:54:50.617Z,1.70
2018-09-22T07:55:50.642Z,1.90
2018-09-22T07:56:50.655Z,1.80
2018-09-22T07:57:50.670Z,2.10
2018-09-22T07:58:50.697Z,2.10
2018-09-22T07:59:50.710Z,1.90
2018-09-22T08:00:50.734Z,1.70
2018-09-22T08:01:50.749Z,2.20
2018-09-22T08:02:50.775Z,1.60
2018-09-22T08:03:50.801Z,2.00
2018-09-22T08:04:50.813Z,1.60
2018-09-22T08:05:50.828Z,2.10
2018-09-22T08:06:50.857Z,1.90
2018-09-22T08:07:50.867Z,1.70
2018-09-22T08:08:50.893Z,1.90
2018-09-22T08:09:50.907Z,2.20
2018-09-22T08:10:50.934Z,1.80
2018-09-22T08:11:50.946Z,2.00
2018-09-22T08:12:50.971Z,1.80
2018-09-22T08:13:50.986Z,1.60
2018-09-22T08:14:51.012Z,1.80
2018-09-22T08:15:51.024Z,1.80
2018-09-22T08:16:51.050Z,1.70
2018-09-22T08:17:51.065Z,1.80
2018-09-22T08:18:51.091Z,2.20
2018-09-22T08:19:51.104Z,2.00
2018-09-22T08:20:51.130Z,1.90
2018-09-22T08:21:51.144Z,2.50
2018-09-22T08:22:51.170Z,2.00
2018-09-22T08:23:51.183Z,1.70
2018-09-22T08:24:51.210Z,2.00
2018-09-22T08:25:51.234Z,1.60
2018-09-22T08:26:51.249Z,1.60
2018-09-22T08:27:51.274Z,1.70
2018-09-22T08:28:51.287Z,1.80
2018-09-22T08:29:51.313Z,1.80
2018-09-22T08:30:51.329Z,1.80
2018-09-22T08:31:51.357Z,1.70
2018-09-22T08:32:51.366Z,1.70
2018-09-22T08:33:51.394Z,1.50
2018-09-22T08:34:51.420Z,1.80
2018-09-22T08:35:51.431Z,2.00
2018-09-22T08:36:51.640Z,1.70
2018-09-22T08:37:51.475Z,1.60
2018-09-22T08:38:51.513Z,1.60
2018-09-22T08:39:51.513Z,1.90
2018-09-22T08:40:51.538Z,1.60
2018-09-22T08:41:51.565Z,1.60
2018-09-22T08:42:51.576Z,1.60
2018-09-22T08:43:51.653Z,1.60
2018-09-22T08:44:51.639Z,1.40
2018-09-22T08:45:51.642Z,1.60
2018-09-22T08:46:51.668Z,1.60
2018-09-22T08:47:51.681Z,1.50
2018-09-22T08:48:51.707Z,1.70
2018-09-22T08:49:51.775Z,1.50
2018-09-22T08:50:51.747Z,1.30
2018-09-22T08:51:51.761Z,2.00
2018-09-22T08:52:51.786Z,1.70
2018-09-22T08:53:51.811Z,1.80
2018-09-22T08:54:51.832Z,1.90
2018-09-22T08:55:51.852Z,1.50
2018-09-22T08:56:51.864Z,1.40
2018-09-22T08:57:51.913Z,1.80
2018-09-22T08:58:51.916Z,1.70
2018-09-22T08:59:51.934Z,1.60
2018-09-22T09:00:51.956Z,1.70
2018-09-22T09:01:51.970Z,1.90
2018-09-22T09:02:51.995Z,1.40
2018-09-22T09:03:52.021Z,1.50
2018-09-22T09:04:52.054Z,1.50
2018-09-22T09:05:52.093Z,1.90
2018-09-22T09:06:52.076Z,1.50
2018-09-22T09:07:52.101Z,1.90
2018-09-22T09:08:52.128Z,1.60
2018-09-22T09:09:52.141Z,1.40
2018-09-22T09:10:52.166Z,1.50
2018-09-22T09:11:52.181Z,1.60
2018-09-22T09:12:52.204Z,1.20
2018-09-22T09:13:52.233Z,1.30
2018-09-22T09:14:52.244Z,1.50
2018-09-22T09:15:52.273Z,1.40
2018-09-22T09:16:52.297Z,1.40
2018-09-22T09:17:52.311Z,1.40
2018-09-22T09:18:52.339Z,1.30
2018-09-22T09:19:52.350Z,1.60
2018-09-22T09:20:52.375Z,1.70
2018-09-22T09:21:52.401Z,1.40
2018-09-22T09:22:52.415Z,1.40
2018-09-22T09:23:52.443Z,1.40
2018-09-22T09:24:52.455Z,1.80
2018-09-22T09:25:52.481Z,1.60
2018-09-22T09:26:52.508Z,1.50
2018-09-22T09:27:52.533Z,1.40
2018-09-22T09:28:52.546Z,1.60
2018-09-22T09:29:52.571Z,1.70
2018-09-22T09:30:52.586Z,1.40
2018-09-22T09:31:52.612Z,1.40
2018-09-22T09:32:52.625Z,2.00
2018-09-22T09:33:52.663Z,1.30
2018-09-22T09:34:52.677Z,1.80
2018-09-22T09:35:52.691Z,1.40
2018-09-22T09:36:52.717Z,2.10
2018-09-22T09:37:52.742Z,1.30
2018-09-22T09:38:52.756Z,1.60
2018-09-22T09:39:52.780Z,1.60
2018-09-22T09:40:52.796Z,1.30
2018-09-22T09:41:52.821Z,1.70
2018-09-22T09:42:52.848Z,1.50
2018-09-22T09:43:52.861Z,1.50
2018-09-22T09:44:52.886Z,1.20
2018-09-22T09:45:52.912Z,1.50
2018-09-22T09:46:52.926Z,1.40
2018-09-22T09:47:52.955Z,1.40
2018-09-22T09:48:52.965Z,1.20
2018-09-22T09:49:52.990Z,1.30
2018-09-22T09:50:53.017Z,1.40
2018-09-22T09:51:53.040Z,1.70
2018-09-22T09:52:53.056Z,1.80
2018-09-22T09:53:53.083Z,1.40
2018-09-22T09:54:53.146Z,1.40
2018-09-22T09:55:53.123Z,1.80
2018-09-22T09:56:53.136Z,1.80
2018-09-22T09:57:53.161Z,1.60
2018-09-22T09:58:53.188Z,1.40
2018-09-22T09:59:53.200Z,1.60
2018-09-22T10:00:53.226Z,1.50
2018-09-22T10:01:53.240Z,1.80
2018-09-22T10:02:53.267Z,1.50
2018-09-22T10:03:53.292Z,1.50
2018-09-22T10:04:53.306Z,1.60
2018-09-22T10:05:53.331Z,1.40
2018-09-22T10:06:53.358Z,1.60
2018-09-22T10:07:53.372Z,1.60
2018-09-22T10:08:53.397Z,1.50
2018-09-22T10:09:53.411Z,1.60
2018-09-22T10:10:53.436Z,1.50
2018-09-22T10:11:53.509Z,1.40
2018-09-22T10:12:53.476Z,1.60
2018-09-22T10:13:53.502Z,1.60
2018-09-22T10:14:53.529Z,1.30
2018-09-22T10:15:53.541Z,1.60
2018-09-22T10:16:53.568Z,1.30
2018-09-22T10:17:53.593Z,1.50
2018-09-22T10:18:53.609Z,1.90
2018-09-22T10:19:53.633Z,1.20
2018-09-22T10:20:53.647Z,1.50
2018-09-22T10:21:53.673Z,1.30
2018-09-22T10:22:53.697Z,1.40
2018-09-22T10:23:53.715Z,1.50
2018-09-22T10:24:53.737Z,1.60
2018-09-22T10:25:53.751Z,1.90
2018-09-22T10:26:53.777Z,1.40
2018-09-22T10:27:53.844Z,1.50
2018-09-22T10:28:53.873Z,1.60
2018-09-22T10:29:53.848Z,1.50
2018-09-22T10:30:53.870Z,1.50
2018-09-22T10:31:53.882Z,1.40
2018-09-22T10:32:53.908Z,1.60
2018-09-22T10:33:53.922Z,1.90
2018-09-22T10:34:53.950Z,1.40
2018-09-22T10:35:53.974Z,1.70
2018-09-22T10:36:53.987Z,1.50
2018-09-22T10:37:54.012Z,1.60
2018-09-22T10:38:54.039Z,1.40
2018-09-22T10:39:54.108Z,1.60
2018-09-22T10:40:54.078Z,1.40
2018-09-22T10:41:54.092Z,1.40
2018-09-22T10:42:54.118Z,1.60
2018-09-22T10:43:54.145Z,1.70
2018-09-22T10:44:54.169Z,1.40
2018-09-22T10:45:54.184Z,1.40
2018-09-22T10:46:54.209Z,1.40
2018-09-22T10:47:54.223Z,1.40
2018-09-22T10:48:54.249Z,1.30
2018-09-22T10:49:54.275Z,1.40
2018-09-22T10:50:54.291Z,1.50
2018-09-22T10:51:54.315Z,1.50
2018-09-22T10:52:54.342Z,1.70
2018-09-22T10:53:54.354Z,1.40
2018-09-22T10:54:54.388Z,1.50
2018-09-22T10:55:54.396Z,1.90
2018-09-22T10:56:54.419Z,1.50
2018-09-22T10:57:54.446Z,1.60
2018-09-22T10:58:54.462Z,1.20
2018-09-22T10:59:54.496Z,1.30
2018-09-22T11:00:54.498Z,1.50
2018-09-22T11:01:54.525Z,1.40
2018-09-22T11:02:54.550Z,1.40
2018-09-22T11:03:54.564Z,1.30
2018-09-22T11:04:54.593Z,1.30
2018-09-22T11:05:54.615Z,1.70
2018-09-22T11:06:54.630Z,1.50
2018-09-22T11:07:54.655Z,1.40
2018-09-22T11:08:54.682Z,1.70
2018-09-22T11:09:54.695Z,1.50
2018-09-22T11:10:54.720Z,1.80
2018-09-22T11:11:54.749Z,1.60
2018-09-22T11:12:54.760Z,1.80
2018-09-22T11:13:54.786Z,1.60
2018-09-22T11:14:54.813Z,1.40
2018-09-22T11:15:54.837Z,1.40
2018-09-22T11:16:54.851Z,1.70
2018-09-22T11:17:54.876Z,1.70
2018-09-22T11:18:54.903Z,1.50
2018-09-22T11:19:54.917Z,1.50
2018-09-22T11:20:54.943Z,1.50
2018-09-22T11:21:54.969Z,1.90
2018-09-22T11:22:54.982Z,1.70
2018-09-22T11:23:55.008Z,1.40
2018-09-22T11:24:55.046Z,1.70
2018-09-22T11:25:55.059Z,1.50
2018-09-22T11:26:55.139Z,1.50
2018-09-22T11:27:55.099Z,1.70
2018-09-22T11:28:55.126Z,1.60
2018-09-22T11:29:55.138Z,1.70
2018-09-22T11:30:55.165Z,1.50
2018-09-22T11:31:55.191Z,1.50
2018-09-22T11:32:55.207Z,1.70
2018-09-22T11:33:55.231Z,1.50
2018-09-22T11:34:55.261Z,1.70
2018-09-22T11:35:55.282Z,1.70
2018-09-22T11:36:55.294Z,1.60
2018-09-22T11:37:55.320Z,2.20
2018-09-22T11:38:55.347Z,1.70
2018-09-22T11:39:55.373Z,1.40
2018-09-22T11:40:55.387Z,1.80
2018-09-22T11:41:55.414Z,1.60
2018-09-22T11:42:55.439Z,1.80
2018-09-22T11:43:55.452Z,2.10
2018-09-22T11:44:55.478Z,1.40
2018-09-22T11:45:55.504Z,1.90
2018-09-22T11:46:55.529Z,1.40
2018-09-22T11:47:55.546Z,1.50
2018-09-22T11:48:55.569Z,1.60
2018-09-22T11:49:55.596Z,1.60
2018-09-22T11:50:55.621Z,1.80
2018-09-22T11:51:55.634Z,1.70
2018-09-22T11:52:55.662Z,1.70
2018-09-22T11:53:55.691Z,1.50
2018-09-22T11:54:55.712Z,1.80
2018-09-22T11:55:55.727Z,1.70
2018-09-22T11:56:55.753Z,1.20
2018-09-22T11:57:55.780Z,1.90
2018-09-22T11:58:55.794Z,1.70
2018-09-22T11:59:55.820Z,1.70
2018-09-22T12:00:55.848Z,1.40
2018-09-22T12:01:55.928Z,1.90
2018-09-22T12:02:55.883Z,1.50
2018-09-22T12:03:55.910Z,1.60
2018-09-22T12:04:55.936Z,1.50
2018-09-22T12:05:56.002Z,2.00
2018-09-22T12:06:55.974Z,1.80
2018-09-22T12:07:56.001Z,1.50
2018-09-22T12:08:56.039Z,1.70
2018-09-22T12:09:56.041Z,1.90
2018-09-22T12:10:56.066Z,1.80
2018-09-22T12:11:56.092Z,1.90
2018-09-22T12:12:56.106Z,1.60
2018-09-22T12:13:56.186Z,1.80
2018-09-22T12:14:56.157Z,1.50
2018-09-22T12:15:56.172Z,1.90
2018-09-22T12:16:56.198Z,1.90
2018-09-22T12:17:56.224Z,1.90
2018-09-22T12:18:56.237Z,1.50
2018-09-22T12:19:56.264Z,1.80
2018-09-22T12:20:56.290Z,1.70
2018-09-22T12:21:56.333Z,1.60
2018-09-22T12:22:56.329Z,1.40
2018-09-22T12:23:56.354Z,1.70
2018-09-22T12:24:56.387Z,1.70
2018-09-22T12:25:56.392Z,1.80
2018-09-22T12:26:56.420Z,1.60
2018-09-22T12:27:56.445Z,1.50
2018-09-22T12:28:56.459Z,1.80
2018-09-22T12:29:56.484Z,1.70
2018-09-22T12:30:56.511Z,1.50
2018-09-22T12:31:56.576Z,1.80
2018-09-22T12:32:56.554Z,1.60
2018-09-22T12:33:56.577Z,1.90
2018-09-22T12:34:56.590Z,1.80
2018-09-22T12:35:56.616Z,1.70
2018-09-22T12:36:56.641Z,1.60
2018-09-22T12:37:56.656Z,1.50
2018-09-22T12:38:56.681Z,1.40
2018-09-22T12:39:56.707Z,1.70
2018-09-22T12:40:56.721Z,1.80
2018-09-22T12:41:56.748Z,1.60
2018-09-22T12:42:56.772Z,1.50
2018-09-22T12:43:56.787Z,1.60
2018-09-22T12:44:56.812Z,1.50
2018-09-22T12:45:56.880Z,1.40
2018-09-22T12:46:56.863Z,1.60
2018-09-22T12:47:56.879Z,1.50
2018-09-22T12:48:56.904Z,1.40
2018-09-22T12:49:56.931Z,1.60
2018-09-22T12:50:56.945Z,1.60
2018-09-22T12:51:56.970Z,1.40
2018-09-22T12:52:56.996Z,1.60
2018-09-22T12:53:57.009Z,1.60
2018-09-22T12:54:57.034Z,1.60
2018-09-22T12:55:57.059Z,1.70
2018-09-22T12:56:57.075Z,1.60
2018-09-22T12:57:57.098Z,1.80
2018-09-22T12:58:57.134Z,1.70
2018-09-22T12:59:57.139Z,1.50
2018-09-22T13:00:57.168Z,1.60
2018-09-22T13:01:57.190Z,1.50
2018-09-22T13:02:57.217Z,1.40
2018-09-22T13:03:57.230Z,1.80
2018-09-22T13:04:57.256Z,1.60
2018-09-22T13:05:57.295Z,1.60
2018-09-22T13:06:57.299Z,1.30
2018-09-22T13:07:57.321Z,1.50
2018-09-22T13:08:57.347Z,1.70
2018-09-22T13:09:57.374Z,1.60
2018-09-22T13:10:57.386Z,1.60
2018-09-22T13:11:57.412Z,1.60
2018-09-22T13:12:57.440Z,1.70
2018-09-22T13:13:57.465Z,1.40
2018-09-22T13:14:57.479Z,1.70
2018-09-22T13:15:57.505Z,1.60
2018-09-22T13:16:57.531Z,1.70
2018-09-22T13:17:57.544Z,1.50
2018-09-22T13:18:57.582Z,1.60